sensor_id;sensor_type;location;lat;lon;timestamp;pressure;altitude;pressure_sealevel;temperature
61595;BMP280;47397;48.194;11.632;2023-04-15T00:00:32;94881.31;;;6.15
61595;BMP280;47397;48.194;11.632;2023-04-15T00:01:33;94878.06;;;6.10
61595;BMP280;47397;48.194;11.632;2023-04-15T00:02:33;94883.97;;;6.09
61595;BMP280;47397;48.194;11.632;2023-04-15T00:03:33;94880.44;;;6.16
61595;BMP280;47397;48.194;11.632;2023-04-15T00:04:34;94884.16;;;6.02
61595;BMP280;47397;48.194;11.632;2023-04-15T00:05:34;94879.94;;;6.02
61595;BMP280;47397;48.194;11.632;2023-04-15T00:06:36;94874.75;;;6.08
61595;BMP280;47397;48.194;11.632;2023-04-15T00:07:36;94882.25;;;6.11
61595;BMP280;47397;48.194;11.632;2023-04-15T00:08:37;94874.75;;;6.08
61595;BMP280;47397;48.194;11.632;2023-04-15T00:09:37;94877.31;;;6.07
61595;BMP280;47397;48.194;11.632;2023-04-15T00:10:38;94875.66;;;6.06
61595;BMP280;47397;48.194;11.632;2023-04-15T00:11:38;94881.31;;;5.77
61595;BMP280;47397;48.194;11.632;2023-04-15T00:12:39;94874.03;;;6.03
61595;BMP280;47397;48.194;11.632;2023-04-15T00:13:41;94870.44;;;6.13
61595;BMP280;47397;48.194;11.632;2023-04-15T00:14:41;94868.63;;;6.18
61595;BMP280;47397;48.194;11.632;2023-04-15T00:15:42;94875.47;;;6.13
61595;BMP280;47397;48.194;11.632;2023-04-15T00:16:42;94871.41;;;6.08
61595;BMP280;47397;48.194;11.632;2023-04-15T00:17:42;94874.00;;;6.05
61595;BMP280;47397;48.194;11.632;2023-04-15T00:18:43;94874.75;;;6.08
61595;BMP280;47397;48.194;11.632;2023-04-15T00:19:43;94867.00;;;6.16
61595;BMP280;47397;48.194;11.632;2023-04-15T00:20:44;94869.50;;;6.17
61595;BMP280;47397;48.194;11.632;2023-04-15T00:21:44;94869.47;;;6.19
61595;BMP280;47397;48.194;11.632;2023-04-15T00:22:44;94869.84;;;6.02
61595;BMP280;47397;48.194;11.632;2023-04-15T00:23:45;94869.66;;;6.10
61595;BMP280;47397;48.194;11.632;2023-04-15T00:24:45;94867.84;;;6.16
61595;BMP280;47397;48.194;11.632;2023-04-15T00:25:46;94864.56;;;6.13
61595;BMP280;47397;48.194;11.632;2023-04-15T00:26:46;94866.28;;;6.11
61595;BMP280;47397;48.194;11.632;2023-04-15T00:27:46;94866.09;;;6.18
61595;BMP280;47397;48.194;11.632;2023-04-15T00:28:48;94858.44;;;6.23
61595;BMP280;47397;48.194;11.632;2023-04-15T00:29:49;94860.22;;;6.18
61595;BMP280;47397;48.194;11.632;2023-04-15T00:30:49;94862.19;;;6.07
61595;BMP280;47397;48.194;11.632;2023-04-15T00:31:50;94863.75;;;6.11
61595;BMP280;47397;48.194;11.632;2023-04-15T00:32:50;94864.97;;;5.94
61595;BMP280;47397;48.194;11.632;2023-04-15T00:33:50;94857.22;;;6.04
61595;BMP280;47397;48.194;11.632;2023-04-15T00:34:51;94854.69;;;6.04
61595;BMP280;47397;48.194;11.632;2023-04-15T00:35:51;94860.50;;;6.07
61595;BMP280;47397;48.194;11.632;2023-04-15T00:36:51;94859.03;;;5.97
61595;BMP280;47397;48.194;11.632;2023-04-15T00:37:52;94856.69;;;5.88
61595;BMP280;47397;48.194;11.632;2023-04-15T00:38:52;94854.72;;;6.02
61595;BMP280;47397;48.194;11.632;2023-04-15T00:39:53;94858.94;;;6.02
61595;BMP280;47397;48.194;11.632;2023-04-15T00:40:53;94852.34;;;5.96
61595;BMP280;47397;48.194;11.632;2023-04-15T00:41:54;94847.38;;;5.91
61595;BMP280;47397;48.194;11.632;2023-04-15T00:42:55;94850.63;;;5.98
61595;BMP280;47397;48.194;11.632;2023-04-15T00:43:57;94848.81;;;6.03
61595;BMP280;47397;48.194;11.632;2023-04-15T00:44:57;94851.47;;;5.97
61595;BMP280;47397;48.194;11.632;2023-04-15T00:45:58;94843.13;;;5.93
61595;BMP280;47397;48.194;11.632;2023-04-15T00:47:00;94845.78;;;5.86
61595;BMP280;47397;48.194;11.632;2023-04-15T00:48:00;94840.53;;;5.98
61595;BMP280;47397;48.194;11.632;2023-04-15T00:49:03;94846.25;;;6.05
61595;BMP280;47397;48.194;11.632;2023-04-15T00:50:04;94850.53;;;6.01
61595;BMP280;47397;48.194;11.632;2023-04-15T00:51:05;94844.63;;;6.02
61595;BMP280;47397;48.194;11.632;2023-04-15T00:52:06;94848.91;;;5.99
61595;BMP280;47397;48.194;11.632;2023-04-15T00:53:06;94846.34;;;6.02
61595;BMP280;47397;48.194;11.632;2023-04-15T00:54:06;94851.34;;;6.03
61595;BMP280;47397;48.194;11.632;2023-04-15T00:55:08;94849.00;;;5.94
61595;BMP280;47397;48.194;11.632;2023-04-15T00:56:08;94851.41;;;6.00
61595;BMP280;47397;48.194;11.632;2023-04-15T00:57:08;94851.34;;;6.03
61595;BMP280;47397;48.194;11.632;2023-04-15T00:58:09;94852.38;;;5.93
61595;BMP280;47397;48.194;11.632;2023-04-15T00:59:13;94845.78;;;5.86
61595;BMP280;47397;48.194;11.632;2023-04-15T01:00:14;94846.47;;;5.94
61595;BMP280;47397;48.194;11.632;2023-04-15T01:01:14;94846.63;;;5.86
61595;BMP280;47397;48.194;11.632;2023-04-15T01:02:15;94858.34;;;5.89
61595;BMP280;47397;48.194;11.632;2023-04-15T01:03:15;94843.94;;;5.95
61595;BMP280;47397;48.194;11.632;2023-04-15T01:04:15;94851.31;;;6.05
61595;BMP280;47397;48.194;11.632;2023-04-15T01:05:16;94852.81;;;6.12
61595;BMP280;47397;48.194;11.632;2023-04-15T01:06:17;94842.34;;;5.91
61595;BMP280;47397;48.194;11.632;2023-04-15T01:07:17;94852.97;;;6.06
61595;BMP280;47397;48.194;11.632;2023-04-15T01:08:18;94853.28;;;5.89
61595;BMP280;47397;48.194;11.632;2023-04-15T01:09:18;94850.97;;;5.80
61595;BMP280;47397;48.194;11.632;2023-04-15T01:10:19;94848.25;;;5.90
61595;BMP280;47397;48.194;11.632;2023-04-15T01:11:19;94852.41;;;5.91
61595;BMP280;47397;48.194;11.632;2023-04-15T01:12:20;94855.69;;;5.97
61595;BMP280;47397;48.194;11.632;2023-04-15T01:13:21;94850.47;;;6.04
61595;BMP280;47397;48.194;11.632;2023-04-15T01:14:24;94850.66;;;5.97
61595;BMP280;47397;48.194;11.632;2023-04-15T01:15:24;94850.69;;;5.95
61595;BMP280;47397;48.194;11.632;2023-04-15T01:16:25;94855.69;;;5.97
61595;BMP280;47397;48.194;11.632;2023-04-15T01:17:25;94850.56;;;6.00
61595;BMP280;47397;48.194;11.632;2023-04-15T01:18:26;94847.22;;;5.99
61595;BMP280;47397;48.194;11.632;2023-04-15T01:19:27;94848.84;;;6.02
61595;BMP280;47397;48.194;11.632;2023-04-15T01:20:28;94847.25;;;5.98
61595;BMP280;47397;48.194;11.632;2023-04-15T01:21:28;94851.63;;;5.88
61595;BMP280;47397;48.194;11.632;2023-04-15T01:22:29;94839.84;;;5.88
61595;BMP280;47397;48.194;11.632;2023-04-15T01:23:29;94849.00;;;5.94
61595;BMP280;47397;48.194;11.632;2023-04-15T01:24:31;94853.22;;;5.93
61595;BMP280;47397;48.194;11.632;2023-04-15T01:25:33;94852.38;;;5.93
61595;BMP280;47397;48.194;11.632;2023-04-15T01:26:33;94848.16;;;5.95
61595;BMP280;47397;48.194;11.632;2023-04-15T01:27:37;94846.59;;;5.89
61595;BMP280;47397;48.194;11.632;2023-04-15T01:28:38;94843.81;;;6.02
61595;BMP280;47397;48.194;11.632;2023-04-15T01:29:38;94843.69;;;6.06
61595;BMP280;47397;48.194;11.632;2023-04-15T01:30:39;94843.69;;;6.06
61595;BMP280;47397;48.194;11.632;2023-04-15T01:31:39;94843.66;;;6.08
61595;BMP280;47397;48.194;11.632;2023-04-15T01:32:39;94849.06;;;5.91
61595;BMP280;47397;48.194;11.632;2023-04-15T01:33:41;94848.16;;;5.95
61595;BMP280;47397;48.194;11.632;2023-04-15T01:34:41;94839.94;;;5.85
61595;BMP280;47397;48.194;11.632;2023-04-15T01:35:42;94843.28;;;5.86
61595;BMP280;47397;48.194;11.632;2023-04-15T01:36:42;94849.31;;;5.79
61595;BMP280;47397;48.194;11.632;2023-04-15T01:37:43;94851.59;;;5.91
61595;BMP280;47397;48.194;11.632;2023-04-15T01:38:44;94851.63;;;5.88
61595;BMP280;47397;48.194;11.632;2023-04-15T01:39:44;94854.13;;;5.91
61595;BMP280;47397;48.194;11.632;2023-04-15T01:40:46;94856.44;;;6.00
61595;BMP280;47397;48.194;11.632;2023-04-15T01:41:46;94856.44;;;6.00
61595;BMP280;47397;48.194;11.632;2023-04-15T01:42:47;94860.56;;;6.04
61595;BMP280;47397;48.194;11.632;2023-04-15T01:43:47;94853.91;;;6.02
61595;BMP280;47397;48.194;11.632;2023-04-15T01:44:48;94852.06;;;6.08
61595;BMP280;47397;48.194;11.632;2023-04-15T01:45:48;94857.84;;;6.12
61595;BMP280;47397;48.194;11.632;2023-04-15T01:46:48;94856.31;;;6.06
61595;BMP280;47397;48.194;11.632;2023-04-15T01:47:49;94853.59;;;6.14
61595;BMP280;47397;48.194;11.632;2023-04-15T01:48:49;94857.31;;;5.99
61595;BMP280;47397;48.194;11.632;2023-04-15T01:49:50;94851.66;;;5.86
61595;BMP280;47397;48.194;11.632;2023-04-15T01:50:51;94849.91;;;5.91
61595;BMP280;47397;48.194;11.632;2023-04-15T01:51:52;94855.56;;;6.03
61595;BMP280;47397;48.194;11.632;2023-04-15T01:52:52;94850.56;;;6.00
61595;BMP280;47397;48.194;11.632;2023-04-15T01:53:53;94851.50;;;5.95
61595;BMP280;47397;48.194;11.632;2023-04-15T01:54:53;94851.34;;;6.03
61595;BMP280;47397;48.194;11.632;2023-04-15T01:55:55;94851.94;;;6.13
61595;BMP280;47397;48.194;11.632;2023-04-15T01:56:55;94854.41;;;6.16
61595;BMP280;47397;48.194;11.632;2023-04-15T01:57:55;94851.41;;;6.00
61595;BMP280;47397;48.194;11.632;2023-04-15T01:58:56;94852.13;;;6.05
61595;BMP280;47397;48.194;11.632;2023-04-15T01:59:56;94853.72;;;6.09
61595;BMP280;47397;48.194;11.632;2023-04-15T02:00:57;94854.50;;;6.11
61595;BMP280;47397;48.194;11.632;2023-04-15T02:01:57;94848.56;;;6.14
61595;BMP280;47397;48.194;11.632;2023-04-15T02:02:57;94847.88;;;6.07
61595;BMP280;47397;48.194;11.632;2023-04-15T02:03:58;94853.75;;;6.08
61595;BMP280;47397;48.194;11.632;2023-04-15T02:04:58;94849.81;;;5.94
61595;BMP280;47397;48.194;11.632;2023-04-15T02:05:59;94852.16;;;6.04
61595;BMP280;47397;48.194;11.632;2023-04-15T02:06:59;94845.22;;;6.13
61595;BMP280;47397;48.194;11.632;2023-04-15T02:07:59;94844.78;;;5.96
61595;BMP280;47397;48.194;11.632;2023-04-15T02:09:00;94848.91;;;5.99
61595;BMP280;47397;48.194;11.632;2023-04-15T02:10:00;94846.50;;;5.92
61595;BMP280;47397;48.194;11.632;2023-04-15T02:11:02;94850.53;;;6.01
61595;BMP280;47397;48.194;11.632;2023-04-15T02:12:03;94848.25;;;5.90
61595;BMP280;47397;48.194;11.632;2023-04-15T02:13:03;94850.97;;;5.80
61595;BMP280;47397;48.194;11.632;2023-04-15T02:14:04;94852.28;;;5.99
61595;BMP280;47397;48.194;11.632;2023-04-15T02:15:05;94848.91;;;5.99
61595;BMP280;47397;48.194;11.632;2023-04-15T02:16:14;94847.34;;;5.93
61595;BMP280;47397;48.194;11.632;2023-04-15T02:17:15;94852.28;;;5.99
61595;BMP280;47397;48.194;11.632;2023-04-15T02:18:15;94851.34;;;6.03
61595;BMP280;47397;48.194;11.632;2023-04-15T02:19:16;94848.78;;;6.05
61595;BMP280;47397;48.194;11.632;2023-04-15T02:20:17;94853.09;;;6.00
61595;BMP280;47397;48.194;11.632;2023-04-15T02:21:18;94857.94;;;6.09
61595;BMP280;47397;48.194;11.632;2023-04-15T02:22:18;94849.59;;;6.05
61595;BMP280;47397;48.194;11.632;2023-04-15T02:23:18;94849.50;;;6.10
61595;BMP280;47397;48.194;11.632;2023-04-15T02:24:19;94855.38;;;6.10
61595;BMP280;47397;48.194;11.632;2023-04-15T02:25:19;94850.31;;;6.10
61595;BMP280;47397;48.194;11.632;2023-04-15T02:26:21;94846.88;;;6.14
61595;BMP280;47397;48.194;11.632;2023-04-15T02:27:21;94850.09;;;6.19
61595;BMP280;47397;48.194;11.632;2023-04-15T02:28:22;94847.81;;;6.10
61595;BMP280;47397;48.194;11.632;2023-04-15T02:29:22;94848.59;;;6.12
61595;BMP280;47397;48.194;11.632;2023-04-15T02:30:23;94850.28;;;6.12
61595;BMP280;47397;48.194;11.632;2023-04-15T02:31:23;94851.19;;;6.09
61595;BMP280;47397;48.194;11.632;2023-04-15T02:32:24;94843.69;;;6.06
61595;BMP280;47397;48.194;11.632;2023-04-15T02:33:24;94848.66;;;6.09
61595;BMP280;47397;48.194;11.632;2023-04-15T02:34:25;94848.47;;;6.17
61595;BMP280;47397;48.194;11.632;2023-04-15T02:35:25;94848.56;;;6.14
61595;BMP280;47397;48.194;11.632;2023-04-15T02:36:26;94850.25;;;6.13
61595;BMP280;47397;48.194;11.632;2023-04-15T02:37:26;94848.47;;;6.17
61595;BMP280;47397;48.194;11.632;2023-04-15T02:38:26;94845.44;;;6.04
61595;BMP280;47397;48.194;11.632;2023-04-15T02:39:27;94850.44;;;6.06
61595;BMP280;47397;48.194;11.632;2023-04-15T02:40:27;94848.47;;;6.17
61595;BMP280;47397;48.194;11.632;2023-04-15T02:41:29;94849.81;;;5.94
61595;BMP280;47397;48.194;11.632;2023-04-15T02:42:29;94846.63;;;5.86
61595;BMP280;47397;48.194;11.632;2023-04-15T02:43:30;94848.88;;;6.00
61595;BMP280;47397;48.194;11.632;2023-04-15T02:44:30;94848.78;;;6.05
61595;BMP280;47397;48.194;11.632;2023-04-15T02:45:31;94851.56;;;5.92
61595;BMP280;47397;48.194;11.632;2023-04-15T02:46:31;94850.84;;;5.86
61595;BMP280;47397;48.194;11.632;2023-04-15T02:47:32;94845.66;;;5.93
61595;BMP280;47397;48.194;11.632;2023-04-15T02:48:32;94842.94;;;6.03
61595;BMP280;47397;48.194;11.632;2023-04-15T02:49:33;94842.22;;;5.98
61595;BMP280;47397;48.194;11.632;2023-04-15T02:50:33;94842.34;;;5.91
61595;BMP280;47397;48.194;11.632;2023-04-15T02:51:34;94842.16;;;6.01
61595;BMP280;47397;48.194;11.632;2023-04-15T02:52:34;94841.25;;;6.03
61595;BMP280;47397;48.194;11.632;2023-04-15T02:53:35;94846.25;;;6.05
61595;BMP280;47397;48.194;11.632;2023-04-15T02:54:35;94844.78;;;5.94
61595;BMP280;47397;48.194;11.632;2023-04-15T02:55:35;94844.78;;;5.94
61595;BMP280;47397;48.194;11.632;2023-04-15T02:56:37;94849.72;;;6.01
61595;BMP280;47397;48.194;11.632;2023-04-15T02:57:38;94853.13;;;5.98
61595;BMP280;47397;48.194;11.632;2023-04-15T02:58:39;94851.47;;;5.97
61595;BMP280;47397;48.194;11.632;2023-04-15T02:59:40;94848.16;;;5.95
61595;BMP280;47397;48.194;11.632;2023-04-15T03:00:40;94850.63;;;5.98
61595;BMP280;47397;48.194;11.632;2023-04-15T03:01:40;94847.16;;;6.02
61595;BMP280;47397;48.194;11.632;2023-04-15T03:02:41;94850.63;;;5.98
61595;BMP280;47397;48.194;11.632;2023-04-15T03:03:42;94853.00;;;6.04
61595;BMP280;47397;48.194;11.632;2023-04-15T03:04:42;94857.28;;;6.01
61595;BMP280;47397;48.194;11.632;2023-04-15T03:05:43;94859.03;;;5.97
61595;BMP280;47397;48.194;11.632;2023-04-15T03:06:43;94858.28;;;5.92
61595;BMP280;47397;48.194;11.632;2023-04-15T03:07:44;94862.44;;;5.96
61595;BMP280;47397;48.194;11.632;2023-04-15T03:08:44;94863.09;;;6.04
61595;BMP280;47397;48.194;11.632;2023-04-15T03:09:45;94860.41;;;6.10
61595;BMP280;47397;48.194;11.632;2023-04-15T03:10:45;94863.75;;;6.11
61595;BMP280;47397;48.194;11.632;2023-04-15T03:11:47;94861.16;;;6.14
61595;BMP280;47397;48.194;11.632;2023-04-15T03:12:47;94866.31;;;6.09
61595;BMP280;47397;48.194;11.632;2023-04-15T03:13:48;94862.09;;;6.10
61595;BMP280;47397;48.194;11.632;2023-04-15T03:14:48;94863.88;;;6.06
61595;BMP280;47397;48.194;11.632;2023-04-15T03:15:49;94865.59;;;6.04
61595;BMP280;47397;48.194;11.632;2023-04-15T03:16:49;94861.34;;;6.06
61595;BMP280;47397;48.194;11.632;2023-04-15T03:17:49;94865.31;;;6.16
61595;BMP280;47397;48.194;11.632;2023-04-15T03:18:50;94867.75;;;6.19
61595;BMP280;47397;48.194;11.632;2023-04-15T03:19:50;94865.38;;;6.13
61595;BMP280;47397;48.194;11.632;2023-04-15T03:20:51;94861.25;;;6.11
61595;BMP280;47397;48.194;11.632;2023-04-15T03:21:51;94871.44;;;6.06
61595;BMP280;47397;48.194;11.632;2023-04-15T03:22:51;94872.38;;;6.02
61595;BMP280;47397;48.194;11.632;2023-04-15T03:23:52;94871.25;;;6.14
61595;BMP280;47397;48.194;11.632;2023-04-15T03:24:52;94865.53;;;6.07
61595;BMP280;47397;48.194;11.632;2023-04-15T03:25:53;94868.69;;;6.15
61595;BMP280;47397;48.194;11.632;2023-04-15T03:26:55;94867.91;;;6.13
61595;BMP280;47397;48.194;11.632;2023-04-15T03:27:55;94878.59;;;6.23
61595;BMP280;47397;48.194;11.632;2023-04-15T03:28:56;94864.59;;;6.11
61595;BMP280;47397;48.194;11.632;2023-04-15T03:29:56;94867.22;;;6.07
61595;BMP280;47397;48.194;11.632;2023-04-15T03:30:57;94870.63;;;6.06
61595;BMP280;47397;48.194;11.632;2023-04-15T03:32:16;94871.34;;;6.11
61595;BMP280;47397;48.194;11.632;2023-04-15T03:33:16;94873.94;;;6.08
61595;BMP280;47397;48.194;11.632;2023-04-15T03:34:17;94868.34;;;5.93
61595;BMP280;47397;48.194;11.632;2023-04-15T03:35:17;94874.31;;;5.88
61595;BMP280;47397;48.194;11.632;2023-04-15T03:36:17;94868.34;;;5.95
61595;BMP280;47397;48.194;11.632;2023-04-15T03:37:18;94876.56;;;6.03
61595;BMP280;47397;48.194;11.632;2023-04-15T03:38:18;94871.59;;;6.00
61595;BMP280;47397;48.194;11.632;2023-04-15T03:39:19;94872.59;;;5.91
61595;BMP280;47397;48.194;11.632;2023-04-15T03:40:20;94870.75;;;6.00
61595;BMP280;47397;48.194;11.632;2023-04-15T03:41:20;94871.84;;;5.86
61595;BMP280;47397;48.194;11.632;2023-04-15T03:42:22;94871.75;;;5.91
61595;BMP280;47397;48.194;11.632;2023-04-15T03:43:23;94874.31;;;5.89
61595;BMP280;47397;48.194;11.632;2023-04-15T03:44:23;94866.47;;;6.03
61595;BMP280;47397;48.194;11.632;2023-04-15T03:45:24;94875.66;;;6.06
61595;BMP280;47397;48.194;11.632;2023-04-15T03:46:24;94872.28;;;6.07
61595;BMP280;47397;48.194;11.632;2023-04-15T03:47:25;94875.69;;;6.04
61595;BMP280;47397;48.194;11.632;2023-04-15T03:48:25;94874.78;;;6.07
61595;BMP280;47397;48.194;11.632;2023-04-15T03:49:25;94878.09;;;6.09
61595;BMP280;47397;48.194;11.632;2023-04-15T03:50:26;94871.34;;;6.11
61595;BMP280;47397;48.194;11.632;2023-04-15T03:51:26;94875.53;;;6.10
61595;BMP280;47397;48.194;11.632;2023-04-15T03:52:27;94871.81;;;5.88
61595;BMP280;47397;48.194;11.632;2023-04-15T03:53:27;94869.25;;;5.91
61595;BMP280;47397;48.194;11.632;2023-04-15T03:54:27;94874.25;;;5.92
61595;BMP280;47397;48.194;11.632;2023-04-15T03:55:28;94871.06;;;5.83
61595;BMP280;47397;48.194;11.632;2023-04-15T03:56:28;94871.75;;;5.91
61595;BMP280;47397;48.194;11.632;2023-04-15T03:57:30;94869.47;;;5.80
61595;BMP280;47397;48.194;11.632;2023-04-15T03:58:30;94874.56;;;5.77
61595;BMP280;47397;48.194;11.632;2023-04-15T03:59:31;94873.16;;;5.65
61595;BMP280;47397;48.194;11.632;2023-04-15T04:00:31;94869.50;;;5.79
61595;BMP280;47397;48.194;11.632;2023-04-15T04:01:31;94871.34;;;5.71
61595;BMP280;47397;48.194;11.632;2023-04-15T04:02:32;94864.63;;;5.71
61595;BMP280;47397;48.194;11.632;2023-04-15T04:03:32;94865.13;;;5.85
61595;BMP280;47397;48.194;11.632;2023-04-15T04:04:32;94865.44;;;5.72
61595;BMP280;47397;48.194;11.632;2023-04-15T04:05:33;94873.97;;;5.66
61595;BMP280;47397;48.194;11.632;2023-04-15T04:06:34;94868.22;;;5.61
61595;BMP280;47397;48.194;11.632;2023-04-15T04:07:34;94864.41;;;5.80
61595;BMP280;47397;48.194;11.632;2023-04-15T04:08:34;94865.59;;;5.65
61595;BMP280;47397;48.194;11.632;2023-04-15T04:09:35;94865.44;;;5.72
61595;BMP280;47397;48.194;11.632;2023-04-15T04:10:35;94865.59;;;5.65
61595;BMP280;47397;48.194;11.632;2023-04-15T04:11:36;94863.03;;;5.67
61595;BMP280;47397;48.194;11.632;2023-04-15T04:12:37;94866.22;;;5.75
61595;BMP280;47397;48.194;11.632;2023-04-15T04:13:38;94862.06;;;5.73
61595;BMP280;47397;48.194;11.632;2023-04-15T04:14:38;94869.69;;;5.70
61595;BMP280;47397;48.194;11.632;2023-04-15T04:15:39;94864.56;;;5.74
61595;BMP280;47397;48.194;11.632;2023-04-15T04:16:39;94868.00;;;5.70
61595;BMP280;47397;48.194;11.632;2023-04-15T04:17:39;94863.75;;;5.72
61595;BMP280;47397;48.194;11.632;2023-04-15T04:18:40;94870.34;;;5.78
61595;BMP280;47397;48.194;11.632;2023-04-15T04:19:40;94868.13;;;5.64
61595;BMP280;47397;48.194;11.632;2023-04-15T04:20:40;94866.47;;;5.63
61595;BMP280;47397;48.194;11.632;2023-04-15T04:21:41;94872.44;;;5.57
61595;BMP280;47397;48.194;11.632;2023-04-15T04:22:41;94868.28;;;5.56
61595;BMP280;47397;48.194;11.632;2023-04-15T04:23:42;94866.31;;;5.71
61595;BMP280;47397;48.194;11.632;2023-04-15T04:24:42;94872.78;;;5.82
61595;BMP280;47397;48.194;11.632;2023-04-15T04:25:43;94873.81;;;5.74
61595;BMP280;47397;48.194;11.632;2023-04-15T04:26:43;94874.41;;;5.85
61595;BMP280;47397;48.194;11.632;2023-04-15T04:27:45;94868.75;;;5.74
61595;BMP280;47397;48.194;11.632;2023-04-15T04:28:45;94869.53;;;5.77
61595;BMP280;47397;48.194;11.632;2023-04-15T04:29:45;94870.34;;;5.78
61595;BMP280;47397;48.194;11.632;2023-04-15T04:30:46;94862.09;;;5.71
61595;BMP280;47397;48.194;11.632;2023-04-15T04:31:46;94866.47;;;5.63
61595;BMP280;47397;48.194;11.632;2023-04-15T04:32:48;94874.53;;;5.79
61595;BMP280;47397;48.194;11.632;2023-04-15T04:33:49;94868.75;;;5.74
61595;BMP280;47397;48.194;11.632;2023-04-15T04:34:49;94870.59;;;5.67
61595;BMP280;47397;48.194;11.632;2023-04-15T04:35:49;94873.88;;;5.71
61595;BMP280;47397;48.194;11.632;2023-04-15T04:36:50;94871.84;;;5.86
61595;BMP280;47397;48.194;11.632;2023-04-15T04:37:50;94871.53;;;5.63
61595;BMP280;47397;48.194;11.632;2023-04-15T04:38:50;94873.78;;;5.75
61595;BMP280;47397;48.194;11.632;2023-04-15T04:39:51;94877.88;;;5.79
61595;BMP280;47397;48.194;11.632;2023-04-15T04:40:51;94871.25;;;5.75
61595;BMP280;47397;48.194;11.632;2023-04-15T04:41:52;94873.97;;;5.66
61595;BMP280;47397;48.194;11.632;2023-04-15T04:42:54;94874.69;;;5.71
61595;BMP280;47397;48.194;11.632;2023-04-15T04:43:54;94883.25;;;5.64
61595;BMP280;47397;48.194;11.632;2023-04-15T04:44:54;94873.94;;;5.68
61595;BMP280;47397;48.194;11.632;2023-04-15T04:45:55;94873.69;;;5.78
61595;BMP280;47397;48.194;11.632;2023-04-15T04:46:55;94872.88;;;5.78
61595;BMP280;47397;48.194;11.632;2023-04-15T04:47:55;94873.69;;;5.78
61595;BMP280;47397;48.194;11.632;2023-04-15T04:48:56;94877.06;;;5.79
61595;BMP280;47397;48.194;11.632;2023-04-15T04:49:56;94877.84;;;5.81
61595;BMP280;47397;48.194;11.632;2023-04-15T04:50:57;94880.44;;;5.78
61595;BMP280;47397;48.194;11.632;2023-04-15T04:51:57;94879.56;;;5.79
61595;BMP280;47397;48.194;11.632;2023-04-15T04:52:58;94877.06;;;5.79
61595;BMP280;47397;48.194;11.632;2023-04-15T04:53:58;94879.53;;;5.80
61595;BMP280;47397;48.194;11.632;2023-04-15T04:54:59;94882.84;;;5.82
61595;BMP280;47397;48.194;11.632;2023-04-15T04:55:59;94880.50;;;5.75
61595;BMP280;47397;48.194;11.632;2023-04-15T04:56:59;94883.16;;;5.69
61595;BMP280;47397;48.194;11.632;2023-04-15T04:58:01;94878.94;;;5.69
61595;BMP280;47397;48.194;11.632;2023-04-15T04:59:02;94870.34;;;5.78
61595;BMP280;47397;48.194;11.632;2023-04-15T05:00:02;94878.31;;;5.59
61595;BMP280;47397;48.194;11.632;2023-04-15T05:01:03;94871.50;;;5.64
61595;BMP280;47397;48.194;11.632;2023-04-15T05:02:03;94872.94;;;5.75
61595;BMP280;47397;48.194;11.632;2023-04-15T05:03:04;94875.03;;;5.54
61595;BMP280;47397;48.194;11.632;2023-04-15T05:04:04;94872.50;;;5.54
61595;BMP280;47397;48.194;11.632;2023-04-15T05:05:06;94868.25;;;5.59
61595;BMP280;47397;48.194;11.632;2023-04-15T05:06:06;94875.56;;;5.70
61595;BMP280;47397;48.194;11.632;2023-04-15T05:07:06;94872.41;;;5.60
61595;BMP280;47397;48.194;11.632;2023-04-15T05:08:07;94875.56;;;5.70
61595;BMP280;47397;48.194;11.632;2023-04-15T05:09:07;94872.38;;;5.62
61595;BMP280;47397;48.194;11.632;2023-04-15T05:10:08;94872.28;;;5.67
61595;BMP280;47397;48.194;11.632;2023-04-15T05:11:09;94868.25;;;5.59
61595;BMP280;47397;48.194;11.632;2023-04-15T05:12:09;94868.91;;;5.68
61595;BMP280;47397;48.194;11.632;2023-04-15T05:13:11;94872.19;;;5.71
61595;BMP280;47397;48.194;11.632;2023-04-15T05:14:11;94871.41;;;5.68
61595;BMP280;47397;48.194;11.632;2023-04-15T05:15:12;94870.03;;;5.53
61595;BMP280;47397;48.194;11.632;2023-04-15T05:16:12;94868.91;;;5.68
61595;BMP280;47397;48.194;11.632;2023-04-15T05:17:12;94864.84;;;5.60
61595;BMP280;47397;48.194;11.632;2023-04-15T05:18:13;94870.56;;;5.69
61595;BMP280;47397;48.194;11.632;2023-04-15T05:19:13;94866.34;;;5.69
61595;BMP280;47397;48.194;11.632;2023-04-15T05:20:14;94867.09;;;5.73
61595;BMP280;47397;48.194;11.632;2023-04-15T05:21:14;94866.38;;;5.68
61595;BMP280;47397;48.194;11.632;2023-04-15T05:22:15;94867.09;;;5.73
61595;BMP280;47397;48.194;11.632;2023-04-15T05:23:15;94866.44;;;5.64
61595;BMP280;47397;48.194;11.632;2023-04-15T05:24:16;94858.78;;;5.69
61595;BMP280;47397;48.194;11.632;2023-04-15T05:25:16;94867.19;;;5.70
61595;BMP280;47397;48.194;11.632;2023-04-15T05:26:17;94874.00;;;5.64
61595;BMP280;47397;48.194;11.632;2023-04-15T05:27:17;94872.88;;;5.78
61595;BMP280;47397;48.194;11.632;2023-04-15T05:28:19;94873.88;;;5.71
61595;BMP280;47397;48.194;11.632;2023-04-15T05:29:19;94871.34;;;5.71
61595;BMP280;47397;48.194;11.632;2023-04-15T05:30:19;94874.78;;;5.68
61595;BMP280;47397;48.194;11.632;2023-04-15T05:31:20;94870.56;;;5.69
61595;BMP280;47397;48.194;11.632;2023-04-15T05:32:20;94874.91;;;5.62
61595;BMP280;47397;48.194;11.632;2023-04-15T05:33:21;94867.97;;;5.72
61595;BMP280;47397;48.194;11.632;2023-04-15T05:34:21;94871.97;;;5.80
61595;BMP280;47397;48.194;11.632;2023-04-15T05:35:22;94868.44;;;5.87
61595;BMP280;47397;48.194;11.632;2023-04-15T05:36:22;94857.72;;;5.79
61595;BMP280;47397;48.194;11.632;2023-04-15T05:37:23;94865.50;;;5.69
61595;BMP280;47397;48.194;11.632;2023-04-15T05:38:23;94872.31;;;5.65
61595;BMP280;47397;48.194;11.632;2023-04-15T05:39:23;94864.66;;;5.70
61595;BMP280;47397;48.194;11.632;2023-04-15T05:40:24;94868.00;;;5.70
61595;BMP280;47397;48.194;11.632;2023-04-15T05:41:24;94865.34;;;5.76
61595;BMP280;47397;48.194;11.632;2023-04-15T05:42:25;94864.31;;;5.85
61595;BMP280;47397;48.194;11.632;2023-04-15T05:43:26;94871.38;;;5.69
61595;BMP280;47397;48.194;11.632;2023-04-15T05:44:27;94871.19;;;5.78
61595;BMP280;47397;48.194;11.632;2023-04-15T05:45:27;94875.97;;;5.89
61595;BMP280;47397;48.194;11.632;2023-04-15T05:46:28;94873.56;;;5.84
61595;BMP280;47397;48.194;11.632;2023-04-15T05:47:28;94879.44;;;5.85
61595;BMP280;47397;48.194;11.632;2023-04-15T05:48:28;94879.69;;;5.74
61595;BMP280;47397;48.194;11.632;2023-04-15T05:49:29;94873.47;;;5.89